Terminal Aerodrome Forecast
Issued by NWS

Home | Current Version | Previous Version | Text Only | Print | Product List | Glossary On
Versions: 1 2 3 4 5 6 7 8 9 10 11 12 13 14 15 16 17 18 19 20 21 22 23 24 25 26 27 28 29 30 31 32 33
000
FTUS41 KCTP 270557
TAFAOO
TAF
KAOO 270557Z 2706/2806 VRB02KT P6SM BKN160 OVC230
     FM270900 VRB02KT P6SM -SHRA BKN035 OVC070
     FM271200 14003KT 4SM -RA OVC035
     FM271400 20005KT P6SM VCSH BKN030 OVC035
     FM271600 22005KT P6SM OVC045=

USA.gov is the U.S. government's official web portal to all federal, state and local government web resources and services.